High gust

Not for real navigation. The accuracy of this data is not assured See disclaimer for more information



ICAO NAME COUNTRY WIND Kt GUST Kt VIS m TEMP/DEW C BARO METAR
VILH 25 42 6000 17/0 30.06 VILH 161230Z 29025G42KT 6000 SOCC SCT060 SCT090 17/-7 Q1018 NOSIG
RJCC Chitose Ab Japan 22 33 9999 13/8 29.23 RJCC 161230Z 35022G33KT 9999 FEW025 SCT060 BKN120 13/08 Q0990 RMK 1CU025 3CU060 7AC120 A2923
PASY SHEMYA EARECKSON AS AK United States 28 32 11200 5/4 30.22 PASY 161155Z 34028G32KT 7SM BKN005 05/04 A3022 RMK AO2A PK WND 33035/1104 SLP234 70001 T00510042 100
OIZB Zabol Iran 19 31 9999 40/7 29.59 OIZB 161200Z 31019G31KT CAVOK 40/07 Q1002
CWHP Heath Point Meteorological Aer Canada 24 29 9999 7/7 29.92 CWHP 161200Z AUTO 14024G29KT 07/07 RMK AO1 PK WND 14029/1159 SLP090 T00690066 56010

Show more